Time;durP1;ratioP1;P1;durP2;ratioP2;P2;SDS_P1;SDS_P2;PMS_P1;PMS_P2;Temp;Humidity;BMP_temperature;BMP_pressure;BME280_temperature;BME280_humidity;BME280_pressure;Samples;Min_cycle;Max_cycle;Signal;HPM_P1;HPM_P2
2021/09/11 00:00:15;;;;;;;;;;;;;;;23.29;50.71;95868.53;1048906;28;1118;-55
2021/09/11 00:00:45;;;;;;;;;;;;;;;23.28;50.78;95873.06;1049202;28;1128;-57
2021/09/11 00:01:15;;;;;;;;;;;;;;;23.28;50.38;95873.06;1049175;28;1213;-57
2021/09/11 00:01:46;;;;;;;;;;;;;;;23.29;50.72;95873.81;1047996;28;2068;-57
2021/09/11 00:02:16;;;;;;;;;;;;;;;23.30;50.66;95870.13;1049138;28;1181;-57
2021/09/11 00:02:47;;;;;;;;;;;;;;;23.29;50.75;95873.81;1048002;28;1045;-57
2021/09/11 00:03:17;;;;;;;;;;;;;;;23.29;50.73;95884.41;1048811;28;1214;-57
2021/09/11 00:03:47;;;;;;;;;;;;;;;23.29;50.69;95879.13;1048683;28;1284;-57
2021/09/11 00:04:17;;;;;;;;;;;;;;;23.29;50.51;95871.97;1048718;28;1123;-57
2021/09/11 00:04:49;;;;;;;;;;;;;;;23.29;50.57;95871.19;1048721;28;1032;-55
2021/09/11 00:05:21;;;;;;;;;;;;;;;23.29;50.62;95879.13;1049151;28;1082;-57
2021/09/11 00:05:52;;;;;;;;;;;;;;;23.30;50.56;95875.41;1048112;28;1539;-59
2021/09/11 00:06:22;;;;;;;;;;;;;;;23.29;50.52;95879.13;1047929;28;2017;-60
2021/09/11 00:06:52;;;;;;;;;;;;;;;23.29;50.40;95869.34;1047903;28;2101;-57
2021/09/11 00:07:23;;;;;;;;;;;;;;;23.29;50.37;95873.81;1049200;28;1161;-57
2021/09/11 00:07:54;;;;;;;;;;;;;;;23.28;50.66;95875.72;1048817;28;953;-56
2021/09/11 00:08:24;;;;;;;;;;;;;;;23.28;50.36;95874.91;1048994;28;1146;-59
2021/09/11 00:08:55;;;;;;;;;;;;;;;23.29;50.61;95873.81;1049180;28;1084;-59
2021/09/11 00:09:25;;;;;;;;;;;;;;;23.29;50.37;95871.19;1049410;28;1017;-57
2021/09/11 00:09:55;;;;;;;;;;;;;;;23.28;50.48;95873.06;1049021;28;1123;-56
2021/09/11 00:10:26;;;;;;;;;;;;;;;23.28;50.48;95870.41;1049063;28;1126;-59
2021/09/11 00:10:56;;;;;;;;;;;;;;;23.29;50.52;95864.03;1049233;28;1154;-60
2021/09/11 00:11:26;;;;;;;;;;;;;;;23.28;50.39;95870.41;1049286;28;776;-60
2021/09/11 00:11:56;;;;;;;;;;;;;;;23.28;50.60;95873.06;1047580;28;2052;-58
2021/09/11 00:12:27;;;;;;;;;;;;;;;23.29;50.61;95873.81;1049107;28;831;-56
2021/09/11 00:12:57;;;;;;;;;;;;;;;23.29;50.50;95873.81;1048837;28;1083;-56
2021/09/11 00:13:28;;;;;;;;;;;;;;;23.28;50.48;95873.06;1048513;28;1624;-57
2021/09/11 00:13:58;;;;;;;;;;;;;;;23.29;50.71;95874.63;1047460;28;910;-58
2021/09/11 00:14:28;;;;;;;;;;;;;;;23.29;50.33;95873.81;1048869;28;768;-58
2021/09/11 00:14:59;;;;;;;;;;;;;;;23.28;50.74;95873.06;1048935;28;1099;-58
2021/09/11 00:15:32;;;;;;;;;;;;;;;23.28;50.49;95873.06;1045275;28;768;-58
2021/09/11 00:16:03;;;;;;;;;;;;;;;23.29;50.66;95871.19;1048124;28;1006;-57
2021/09/11 00:16:33;;;;;;;;;;;;;;;23.29;50.42;95871.19;1048963;28;1110;-58
2021/09/11 00:17:03;;;;;;;;;;;;;;;23.29;50.56;95869.34;1048088;28;2058;-56
2021/09/11 00:17:34;;;;;;;;;;;;;;;23.29;50.41;95873.81;1048425;28;827;-57
2021/09/11 00:18:04;;;;;;;;;;;;;;;23.29;50.50;95871.19;1048897;28;1040;-57
2021/09/11 00:18:35;;;;;;;;;;;;;;;23.29;50.50;95869.34;1049111;28;1197;-58
2021/09/11 00:19:05;;;;;;;;;;;;;;;23.28;50.43;95873.06;1048706;28;1049;-58
2021/09/11 00:19:35;;;;;;;;;;;;;;;23.29;50.72;95868.53;1049015;28;935;-58
2021/09/11 00:20:06;;;;;;;;;;;;;;;23.29;50.67;95871.97;1044430;28;1718;-58
2021/09/11 00:20:37;;;;;;;;;;;;;;;23.28;50.52;95864.34;1044158;28;2056;-58
2021/09/11 00:21:07;;;;;;;;;;;;;;;23.29;50.43;95871.19;1048483;28;1591;-57
2021/09/11 00:21:38;;;;;;;;;;;;;;;23.29;50.64;95863.25;1049054;28;1174;-58
2021/09/11 00:22:09;;;;;;;;;;;;;;;23.28;50.45;95867.78;1051719;28;2059;-58
2021/09/11 00:22:39;;;;;;;;;;;;;;;23.28;50.50;95864.34;1047832;28;1841;-54
2021/09/11 00:23:10;;;;;;;;;;;;;;;23.28;50.71;95867.78;1048872;28;1191;-58
2021/09/11 00:23:40;;;;;;;;;;;;;;;23.28;50.70;95866.97;1049045;28;1425;-57
2021/09/11 00:24:10;;;;;;;;;;;;;;;23.27;50.74;95863.53;1049183;28;1213;-58
2021/09/11 00:24:41;;;;;;;;;;;;;;;23.28;50.66;95861.69;1048783;28;1166;-58
2021/09/11 00:25:11;;;;;;;;;;;;;;;23.27;50.64;95860.09;1049020;28;1145;-56
2021/09/11 00:25:42;;;;;;;;;;;;;;;23.28;50.36;95866.97;1049143;28;1072;-59
2021/09/11 00:26:12;;;;;;;;;;;;;;;23.28;50.39;95865.13;1042548;28;1770;-56
2021/09/11 00:26:42;;;;;;;;;;;;;;;23.28;50.72;95866.97;1047412;28;1964;-56
2021/09/11 00:27:13;;;;;;;;;;;;;;;23.28;50.78;95866.97;1047310;28;2130;-56
2021/09/11 00:27:43;;;;;;;;;;;;;;;23.28;50.65;95869.63;1048595;28;1844;-58
2021/09/11 00:28:13;;;;;;;;;;;;;;;23.28;50.36;95873.06;1048779;28;1193;-56
2021/09/11 00:28:44;;;;;;;;;;;;;;;23.28;50.71;95869.63;1049029;28;1084;-57
2021/09/11 00:29:14;;;;;;;;;;;;;;;23.28;50.47;95864.34;1049018;28;1181;-57
2021/09/11 00:29:45;;;;;;;;;;;;;;;23.29;50.73;95868.53;1049005;28;1307;-58
2021/09/11 00:30:15;;;;;;;;;;;;;;;23.28;50.56;95866.97;1048942;28;1114;-57
2021/09/11 00:30:45;;;;;;;;;;;;;;;23.27;50.45;95871.47;1049077;28;1213;-58
2021/09/11 00:31:16;;;;;;;;;;;;;;;23.28;50.71;95869.63;1049033;28;1197;-57
2021/09/11 00:31:46;;;;;;;;;;;;;;;23.27;50.66;95868.84;1049190;28;1033;-58
2021/09/11 00:32:16;;;;;;;;;;;;;;;23.28;50.64;95870.41;1048999;28;1255;-57
2021/09/11 00:32:46;;;;;;;;;;;;;;;23.28;50.72;95872.28;1046671;28;2065;-57
2021/09/11 00:33:17;;;;;;;;;;;;;;;23.28;50.74;95872.28;1048765;28;1231;-57
2021/09/11 00:33:47;;;;;;;;;;;;;;;23.28;50.68;95866.97;1048731;28;1267;-56
2021/09/11 00:34:17;;;;;;;;;;;;;;;23.28;50.50;95870.41;1048599;28;1159;-58
2021/09/11 00:34:48;;;;;;;;;;;;;;;23.28;50.66;95872.28;1048050;28;1289;-56
2021/09/11 00:35:18;;;;;;;;;;;;;;;23.28;50.45;95873.06;1049127;28;1083;-55
2021/09/11 00:35:48;;;;;;;;;;;;;;;23.28;50.73;95872.28;1048609;28;1210;-57
2021/09/11 00:36:19;;;;;;;;;;;;;;;23.28;50.51;95869.63;1048016;28;1738;-57
2021/09/11 00:36:49;;;;;;;;;;;;;;;23.29;50.57;95874.63;1048503;28;1080;-57
2021/09/11 00:37:19;;;;;;;;;;;;;;;23.27;50.44;95866.19;1048476;28;2018;-57
2021/09/11 00:37:50;;;;;;;;;;;;;;;23.28;50.42;95873.06;1047709;28;2722;-57
2021/09/11 00:38:20;;;;;;;;;;;;;;;23.29;50.75;95869.34;1048771;28;1155;-58
2021/09/11 00:38:50;;;;;;;;;;;;;;;23.29;50.42;95876.47;1044324;28;1304;-58
2021/09/11 00:39:23;;;;;;;;;;;;;;;23.28;50.55;95875.72;1044607;28;1222;-56
2021/09/11 00:39:53;;;;;;;;;;;;;;;23.29;50.67;95869.34;1046482;28;1097;-58
2021/09/11 00:40:24;;;;;;;;;;;;;;;23.28;50.51;95875.72;1048920;28;772;-58
2021/09/11 00:40:54;;;;;;;;;;;;;;;23.28;50.43;95872.28;1048672;28;1130;-56
2021/09/11 00:41:24;;;;;;;;;;;;;;;23.28;50.59;95870.41;1049137;28;768;-58
2021/09/11 00:41:55;;;;;;;;;;;;;;;23.29;50.64;95879.91;1049048;28;1048;-57
2021/09/11 00:42:25;;;;;;;;;;;;;;;23.28;50.69;95878.34;1049435;28;2238;-58
2021/09/11 00:42:55;;;;;;;;;;;;;;;23.28;50.43;95872.28;1048182;28;977;-56
2021/09/11 00:43:26;;;;;;;;;;;;;;;23.28;50.43;95875.72;1048861;28;760;-54
2021/09/11 00:43:56;;;;;;;;;;;;;;;23.28;50.72;95872.28;1048108;28;1674;-53
2021/09/11 00:44:26;;;;;;;;;;;;;;;23.28;50.51;95878.34;1048358;28;980;-58
2021/09/11 00:44:57;;;;;;;;;;;;;;;23.28;50.65;95869.63;1048741;28;1099;-58
2021/09/11 00:45:27;;;;;;;;;;;;;;;23.28;50.37;95869.63;1048303;28;2144;-57
2021/09/11 00:45:57;;;;;;;;;;;;;;;23.28;50.50;95882.84;1047630;28;1500;-57
2021/09/11 00:46:28;;;;;;;;;;;;;;;23.28;50.46;95875.72;1048684;28;1212;-58
2021/09/11 00:46:58;;;;;;;;;;;;;;;23.29;50.76;95876.47;1048278;28;1967;-57
2021/09/11 00:47:28;;;;;;;;;;;;;;;23.29;50.64;95876.47;1047072;28;2084;-58
2021/09/11 00:47:59;;;;;;;;;;;;;;;23.28;50.62;95870.41;1047420;28;1056;-54
2021/09/11 00:48:29;;;;;;;;;;;;;;;23.29;50.58;95871.19;1049105;28;1025;-56
2021/09/11 00:48:59;;;;;;;;;;;;;;;23.29;50.56;95879.13;1048691;28;1052;-58
2021/09/11 00:49:30;;;;;;;;;;;;;;;23.29;50.43;95876.47;1057132;28;1465;-57
2021/09/11 00:50:01;;;;;;;;;;;;;;;23.29;50.72;95877.25;1052880;28;1373;-55
2021/09/11 00:50:31;;;;;;;;;;;;;;;23.29;50.42;95874.63;1048822;28;1146;-56
2021/09/11 00:51:01;;;;;;;;;;;;;;;23.29;50.66;95873.81;1044321;28;1190;-58
2021/09/11 00:51:32;;;;;;;;;;;;;;;23.30;50.54;95878.06;1040607;28;795;-56
2021/09/11 00:52:02;;;;;;;;;;;;;;;23.29;50.69;95873.81;1044402;28;1137;-53
2021/09/11 00:52:32;;;;;;;;;;;;;;;23.28;50.62;95872.28;1042161;28;2050;-57
2021/09/11 00:53:03;;;;;;;;;;;;;;;23.29;50.51;95885.19;1047559;28;2127;-57
2021/09/11 00:53:33;;;;;;;;;;;;;;;23.30;50.75;95880.72;1048514;28;1216;-58
2021/09/11 00:54:04;;;;;;;;;;;;;;;23.29;50.75;95876.47;1048581;28;1081;-55
2021/09/11 00:54:34;;;;;;;;;;;;;;;23.29;50.77;95876.47;1047956;28;2225;-56
2021/09/11 00:55:05;;;;;;;;;;;;;;;23.29;50.73;95876.47;1052364;28;1602;-56
2021/09/11 00:55:36;;;;;;;;;;;;;;;23.29;50.44;95879.13;1052633;28;1141;-58
2021/09/11 00:56:07;;;;;;;;;;;;;;;23.28;50.59;95881.00;1051277;28;2167;-56
2021/09/11 00:56:37;;;;;;;;;;;;;;;23.29;50.57;95873.81;1052507;28;797;-56
2021/09/11 00:57:07;;;;;;;;;;;;;;;23.29;50.63;95882.56;1048457;28;1073;-55
2021/09/11 00:57:39;;;;;;;;;;;;;;;23.29;50.67;95881.75;1047787;28;2200;-54
2021/09/11 00:58:09;;;;;;;;;;;;;;;23.29;50.71;95885.19;1049000;28;1075;-56
2021/09/11 00:58:39;;;;;;;;;;;;;;;23.29;50.57;95885.19;1044457;28;1190;-57
2021/09/11 00:59:10;;;;;;;;;;;;;;;23.29;50.66;95887.06;1044281;28;1159;-58
2021/09/11 00:59:40;;;;;;;;;;;;;;;23.30;50.62;95886.00;1044212;28;1089;-54
2021/09/11 01:00:11;;;;;;;;;;;;;;;23.30;50.63;95883.34;1044086;28;1178;-55
2021/09/11 01:00:41;;;;;;;;;;;;;;;23.28;50.64;95888.94;1048706;28;1048;-57
2021/09/11 01:01:12;;;;;;;;;;;;;;;23.29;50.45;95881.75;1048917;28;1177;-55
2021/09/11 01:01:42;;;;;;;;;;;;;;;23.28;50.67;95883.66;1048799;28;1154;-57
2021/09/11 01:02:12;;;;;;;;;;;;;;;23.29;50.52;95882.56;1049020;28;1098;-56
2021/09/11 01:02:43;;;;;;;;;;;;;;;23.29;50.41;95881.75;1046558;28;2170;-56
2021/09/11 01:03:13;;;;;;;;;;;;;;;23.29;50.52;95884.41;1048813;28;1115;-55
2021/09/11 01:03:43;;;;;;;;;;;;;;;23.28;50.66;95882.84;1048275;28;1285;-58
2021/09/11 01:04:14;;;;;;;;;;;;;;;23.28;50.58;95883.66;1048463;28;1135;-57
2021/09/11 01:04:44;;;;;;;;;;;;;;;23.28;50.81;95882.84;1048841;28;1119;-57
2021/09/11 01:05:15;;;;;;;;;;;;;;;23.28;50.70;95883.66;1048903;28;1137;-55
2021/09/11 01:05:45;;;;;;;;;;;;;;;23.30;50.38;95880.72;1048691;28;832;-58
2021/09/11 01:06:15;;;;;;;;;;;;;;;23.29;50.42;95879.13;1047538;28;1694;-58
2021/09/11 01:06:46;;;;;;;;;;;;;;;23.29;50.72;95871.19;1048892;28;1213;-58
2021/09/11 01:07:16;;;;;;;;;;;;;;;23.30;50.64;95883.34;1048790;28;1910;-58
2021/09/11 01:07:50;;;;;;;;;;;;;;;23.29;50.76;95881.75;1047537;28;2043;-57
2021/09/11 01:08:20;;;;;;;;;;;;;;;23.29;50.37;95879.91;1048947;28;1154;-56
2021/09/11 01:08:52;;;;;;;;;;;;;;;23.29;50.79;95879.13;1048602;28;1520;-53
2021/09/11 01:09:24;;;;;;;;;;;;;;;23.29;50.49;95879.13;1042450;28;1167;-57
2021/09/11 01:10:14;;;;;;;;;;;;;;;23.28;50.58;95880.22;1044145;28;1226;-57
2021/09/11 01:11:04;;;;;;;;;;;;;;;23.28;50.51;95878.34;1045891;28;1029;-57
2021/09/11 01:11:42;;;;;;;;;;;;;;;23.29;50.72;95881.75;1048573;28;1416;-57
2021/09/11 01:12:13;;;;;;;;;;;;;;;23.28;50.57;95880.22;1044249;28;1123;-58
2021/09/11 01:12:43;;;;;;;;;;;;;;;23.30;50.54;95883.34;1043495;28;2015;-57
2021/09/11 01:13:13;;;;;;;;;;;;;;;23.28;50.72;95881.00;1040300;28;1511;-57
2021/09/11 01:13:44;;;;;;;;;;;;;;;23.29;50.69;95876.47;1039799;28;2254;-57
2021/09/11 01:14:14;;;;;;;;;;;;;;;23.29;50.66;95879.13;1047330;28;2025;-57
2021/09/11 01:15:05;;;;;;;;;;;;;;;23.29;50.75;95879.13;1048389;28;1139;-58
2021/09/11 01:15:56;;;;;;;;;;;;;;;23.29;50.67;95884.41;1044623;28;1338;-58
2021/09/11 01:16:46;;;;;;;;;;;;;;;23.29;50.50;95884.41;1045751;28;1388;-58
2021/09/11 01:17:17;;;;;;;;;;;;;;;23.28;50.78;95878.34;1048808;28;1111;-54
2021/09/11 01:17:47;;;;;;;;;;;;;;;23.29;50.73;95879.13;1047268;28;2037;-58
2021/09/11 01:18:18;;;;;;;;;;;;;;;23.29;50.69;95873.81;1048441;28;1154;-57
2021/09/11 01:18:49;;;;;;;;;;;;;;;23.29;50.49;95879.13;1047686;28;2119;-55
2021/09/11 01:19:19;;;;;;;;;;;;;;;23.28;50.65;95877.56;1048599;28;1115;-55
2021/09/11 01:20:10;;;;;;;;;;;;;;;23.29;50.49;95884.41;1045972;28;1517;-55
2021/09/11 01:21:00;;;;;;;;;;;;;;;23.29;50.42;95871.19;1051548;28;1159;-56
2021/09/11 01:21:50;;;;;;;;;;;;;;;23.29;50.79;95877.25;1045921;28;1855;-58
2021/09/11 01:22:21;;;;;;;;;;;;;;;23.29;50.67;95871.19;1047105;28;1737;-58
2021/09/11 01:22:51;;;;;;;;;;;;;;;23.29;50.52;95879.13;1048162;28;1072;-54
2021/09/11 01:23:23;;;;;;;;;;;;;;;23.29;50.41;95871.19;1048695;28;1111;-58
2021/09/11 01:23:53;;;;;;;;;;;;;;;23.29;50.56;95873.81;1047706;28;2091;-55
2021/09/11 01:24:23;;;;;;;;;;;;;;;23.29;50.73;95871.19;1044946;28;1115;-57
2021/09/11 01:24:54;;;;;;;;;;;;;;;23.28;50.62;95866.97;1048763;28;1036;-58
2021/09/11 01:25:25;;;;;;;;;;;;;;;23.29;50.71;95874.63;1048976;28;1197;-58
2021/09/11 01:25:59;;;;;;;;;;;;;;;23.29;50.56;95868.53;1047749;28;1791;-58
2021/09/11 01:26:43;;;;;;;;;;;;;;;23.28;50.60;95878.34;1048672;28;1207;-57
2021/09/11 01:27:33;;;;;;;;;;;;;;;23.27;50.44;95873.34;1046960;28;1403;-56
2021/09/11 01:28:03;;;;;;;;;;;;;;;23.29;50.67;95879.13;1056701;28;1111;-57
2021/09/11 01:28:34;;;;;;;;;;;;;;;23.29;50.78;95876.47;1051446;28;1215;-56
2021/09/11 01:29:08;;;;;;;;;;;;;;;23.29;50.26;95876.47;1047552;28;2060;-58
2021/09/11 01:29:38;;;;;;;;;;;;;;;23.28;50.64;95869.63;1048613;28;1166;-58
2021/09/11 01:30:11;;;;;;;;;;;;;;;23.29;50.67;95879.13;1048530;28;1093;-58
2021/09/11 01:30:41;;;;;;;;;;;;;;;23.28;50.58;95875.72;1044194;28;1217;-58
2021/09/11 01:31:11;;;;;;;;;;;;;;;23.28;50.31;95878.34;1044679;28;1175;-57
2021/09/11 01:31:42;;;;;;;;;;;;;;;23.28;50.71;95873.06;1048616;28;1112;-58
2021/09/11 01:32:15;;;;;;;;;;;;;;;23.29;50.38;95876.47;1047755;28;2061;-58
2021/09/11 01:32:46;;;;;;;;;;;;;;;23.28;50.55;95873.06;1047427;28;1209;-57
2021/09/11 01:33:16;;;;;;;;;;;;;;;23.27;50.42;95879.41;1048845;28;1233;-56
2021/09/11 01:33:47;;;;;;;;;;;;;;;23.28;50.65;95878.34;1047725;28;2117;-57
2021/09/11 01:34:17;;;;;;;;;;;;;;;23.28;50.70;95875.72;1048704;28;904;-55
2021/09/11 01:34:48;;;;;;;;;;;;;;;23.28;50.70;95874.91;1048629;28;1084;-56
2021/09/11 01:35:18;;;;;;;;;;;;;;;23.27;50.73;95871.47;1048772;28;1165;-57
2021/09/11 01:35:49;;;;;;;;;;;;;;;23.28;50.62;95877.56;1047562;28;1779;-57
2021/09/11 01:36:19;;;;;;;;;;;;;;;23.28;50.64;95872.28;1048521;28;1218;-58
2021/09/11 01:36:49;;;;;;;;;;;;;;;23.28;50.47;95877.56;1048544;28;1089;-54
2021/09/11 01:37:20;;;;;;;;;;;;;;;23.29;50.51;95877.25;1048090;28;1328;-58
2021/09/11 01:37:50;;;;;;;;;;;;;;;23.28;50.70;95872.28;1048395;28;1721;-56
2021/09/11 01:38:21;;;;;;;;;;;;;;;23.29;50.57;95873.81;1048932;28;1155;-58
2021/09/11 01:38:51;;;;;;;;;;;;;;;23.28;50.53;95873.06;1047686;28;2049;-57
2021/09/11 01:39:21;;;;;;;;;;;;;;;23.28;50.70;95875.72;1048556;28;1173;-58
2021/09/11 01:39:52;;;;;;;;;;;;;;;23.28;50.66;95872.28;1048923;28;1037;-54
2021/09/11 01:40:23;;;;;;;;;;;;;;;23.28;50.32;95872.28;1048930;28;1122;-58
2021/09/11 01:40:53;;;;;;;;;;;;;;;23.28;50.70;95866.97;1046730;28;1242;-57
2021/09/11 01:41:23;;;;;;;;;;;;;;;23.29;50.45;95876.47;1048332;28;835;-58
2021/09/11 01:41:54;;;;;;;;;;;;;;;23.28;50.46;95875.72;1048501;28;1065;-57
2021/09/11 01:42:25;;;;;;;;;;;;;;;23.29;50.34;95874.63;1050206;28;1047;-56
2021/09/11 01:42:55;;;;;;;;;;;;;;;23.29;50.66;95879.13;1048640;28;1029;-58
2021/09/11 01:43:35;;;;;;;;;;;;;;;23.28;50.36;95873.06;1048753;28;769;-58
2021/09/11 01:44:05;;;;;;;;;;;;;;;23.28;50.51;95873.06;1047644;28;2020;-56
2021/09/11 01:44:36;;;;;;;;;;;;;;;23.28;50.37;95874.91;1048706;28;716;-57
2021/09/11 01:45:10;;;;;;;;;;;;;;;23.28;50.55;95875.72;1048708;28;1084;-57
2021/09/11 01:45:40;;;;;;;;;;;;;;;23.28;50.55;95883.66;1047015;28;1727;-57
2021/09/11 01:46:11;;;;;;;;;;;;;;;23.28;50.44;95874.91;1048486;28;1127;-53
2021/09/11 01:46:41;;;;;;;;;;;;;;;23.28;50.59;95877.56;1048568;28;1053;-56
2021/09/11 01:47:11;;;;;;;;;;;;;;;23.28;50.60;95874.91;1048123;28;1910;-56
2021/09/11 01:47:42;;;;;;;;;;;;;;;23.28;50.72;95880.22;1047120;28;1092;-54
2021/09/11 01:48:12;;;;;;;;;;;;;;;23.28;50.67;95874.91;1048538;28;1142;-57
2021/09/11 01:48:43;;;;;;;;;;;;;;;23.27;50.68;95876.78;1048510;28;1037;-58
2021/09/11 01:49:13;;;;;;;;;;;;;;;23.28;50.64;95877.56;1047655;28;2045;-57
2021/09/11 01:49:44;;;;;;;;;;;;;;;23.29;50.71;95876.47;1048274;28;1097;-57
2021/09/11 01:50:14;;;;;;;;;;;;;;;23.28;50.67;95880.22;1048511;28;1135;-58
2021/09/11 01:50:45;;;;;;;;;;;;;;;23.27;50.67;95875.97;1047730;28;2116;-58
2021/09/11 01:51:15;;;;;;;;;;;;;;;23.28;50.33;95877.56;1048455;28;1488;-55
2021/09/11 01:51:46;;;;;;;;;;;;;;;23.29;50.52;95879.13;1048590;28;1072;-56
2021/09/11 01:52:16;;;;;;;;;;;;;;;23.28;50.43;95882.84;1048906;28;1090;-56
2021/09/11 01:52:48;;;;;;;;;;;;;;;23.28;50.63;95886.28;1048491;28;1145;-54
2021/09/11 01:53:18;;;;;;;;;;;;;;;23.28;50.57;95883.66;1048570;28;1127;-57
2021/09/11 01:53:48;;;;;;;;;;;;;;;23.28;50.63;95881.00;1046449;28;2000;-55
2021/09/11 01:54:19;;;;;;;;;;;;;;;23.28;50.58;95877.56;1047972;28;1525;-56
2021/09/11 01:54:49;;;;;;;;;;;;;;;23.28;50.65;95886.28;1048436;28;1119;-55
2021/09/11 01:55:21;;;;;;;;;;;;;;;23.28;50.67;95886.28;1048887;28;1134;-57
2021/09/11 01:55:51;;;;;;;;;;;;;;;23.28;50.63;95888.16;1047512;28;2064;-57
2021/09/11 01:56:22;;;;;;;;;;;;;;;23.28;50.63;95885.50;1046456;28;2002;-55
2021/09/11 01:56:52;;;;;;;;;;;;;;;23.28;50.48;95886.28;1048493;28;1072;-54
2021/09/11 01:57:22;;;;;;;;;;;;;;;23.28;50.77;95888.16;1046593;28;1667;-57
2021/09/11 01:57:53;;;;;;;;;;;;;;;23.28;50.62;95888.16;1045978;28;2021;-58
2021/09/11 01:58:23;;;;;;;;;;;;;;;23.28;50.68;95888.16;1048623;28;1321;-56
2021/09/11 01:58:53;;;;;;;;;;;;;;;23.28;50.77;95888.94;1047828;28;2052;-58
2021/09/11 01:59:24;;;;;;;;;;;;;;;23.28;50.33;95891.56;1048791;28;878;-55
2021/09/11 01:59:54;;;;;;;;;;;;;;;23.28;50.44;95893.44;1048601;28;1096;-56
2021/09/11 02:00:24;;;;;;;;;;;;;;;23.28;50.32;95893.44;1048920;28;1217;-58
2021/09/11 02:00:55;;;;;;;;;;;;;;;23.28;50.65;95891.56;1048751;28;1248;-56
2021/09/11 02:01:25;;;;;;;;;;;;;;;23.28;50.37;95894.22;1048862;28;981;-55
2021/09/11 02:01:56;;;;;;;;;;;;;;;23.28;50.58;95898.72;1047423;28;2061;-57
2021/09/11 02:02:26;;;;;;;;;;;;;;;23.28;50.39;95891.56;1048617;28;1324;-57
2021/09/11 02:02:56;;;;;;;;;;;;;;;23.27;50.62;95890.00;1047270;28;1029;-56
2021/09/11 02:03:26;;;;;;;;;;;;;;;23.28;50.31;95896.06;1048312;28;1350;-58
2021/09/11 02:03:57;;;;;;;;;;;;;;;23.28;50.62;95896.06;1047476;28;2091;-58
2021/09/11 02:04:27;;;;;;;;;;;;;;;23.27;50.38;95897.94;1048544;28;803;-58
2021/09/11 02:04:57;;;;;;;;;;;;;;;23.28;50.57;95898.72;1048645;28;1119;-56
2021/09/11 02:05:28;;;;;;;;;;;;;;;23.27;50.43;95897.13;1048712;28;1368;-58
2021/09/11 02:05:58;;;;;;;;;;;;;;;23.28;50.65;95896.06;1048272;28;1336;-55
2021/09/11 02:06:28;;;;;;;;;;;;;;;23.27;50.38;95895.28;1044589;28;2140;-58
2021/09/11 02:06:59;;;;;;;;;;;;;;;23.28;50.53;95898.72;1046623;28;1964;-58
2021/09/11 02:07:29;;;;;;;;;;;;;;;23.26;50.35;95896.38;1048503;28;1182;-54
2021/09/11 02:07:59;;;;;;;;;;;;;;;23.27;50.73;95895.28;1048192;28;1002;-55
2021/09/11 02:08:30;;;;;;;;;;;;;;;23.27;50.46;95892.63;1048750;28;1185;-55
2021/09/11 02:09:00;;;;;;;;;;;;;;;23.28;50.70;95893.44;1047774;28;2068;-56
2021/09/11 02:09:30;;;;;;;;;;;;;;;23.27;50.66;95891.84;1048846;28;740;-55
2021/09/11 02:10:01;;;;;;;;;;;;;;;23.29;50.65;95900.28;1048612;28;1040;-56
2021/09/11 02:10:31;;;;;;;;;;;;;;;23.28;50.52;95893.44;1048327;28;780;-57
2021/09/11 02:11:02;;;;;;;;;;;;;;;23.28;50.69;95902.16;1048290;28;1202;-56
2021/09/11 02:11:32;;;;;;;;;;;;;;;23.27;50.70;95897.94;1048757;28;825;-57
2021/09/11 02:12:03;;;;;;;;;;;;;;;23.28;50.62;95898.72;1049081;28;1344;-57
2021/09/11 02:12:33;;;;;;;;;;;;;;;23.28;50.43;95898.72;1049149;28;1150;-58
2021/09/11 02:13:04;;;;;;;;;;;;;;;23.28;50.45;95904.81;1049478;28;1087;-57
2021/09/11 02:13:34;;;;;;;;;;;;;;;23.28;50.46;95904.81;1049538;28;1279;-55
2021/09/11 02:14:04;;;;;;;;;;;;;;;23.28;50.64;95898.72;1048424;28;2076;-57
2021/09/11 02:14:35;;;;;;;;;;;;;;;23.27;50.32;95897.94;1046793;28;1814;-58
2021/09/11 02:15:05;;;;;;;;;;;;;;;23.27;50.64;95903.22;1048816;28;1084;-56
2021/09/11 02:15:36;;;;;;;;;;;;;;;23.27;50.65;95897.13;1049671;28;1306;-57
2021/09/11 02:16:06;;;;;;;;;;;;;;;23.28;50.68;95901.38;1049491;28;1080;-55
2021/09/11 02:16:36;;;;;;;;;;;;;;;23.27;50.73;95899.78;1049520;28;1197;-58
2021/09/11 02:17:06;;;;;;;;;;;;;;;23.27;50.77;95895.28;1049449;28;1139;-57
2021/09/11 02:17:40;;;;;;;;;;;;;;;23.27;50.36;95902.41;1048404;28;1118;-56
2021/09/11 02:18:10;;;;;;;;;;;;;;;23.28;50.66;95909.31;1049613;28;1115;-54
2021/09/11 02:18:40;;;;;;;;;;;;;;;23.28;50.51;95904.00;1049431;28;1111;-57
2021/09/11 02:19:11;;;;;;;;;;;;;;;23.27;50.70;95908.50;1048523;28;2064;-57
2021/09/11 02:19:41;;;;;;;;;;;;;;;23.28;50.62;95906.66;1057466;28;1295;-55
2021/09/11 02:20:12;;;;;;;;;;;;;;;23.28;50.66;95911.94;1057820;28;1134;-56
2021/09/11 02:20:42;;;;;;;;;;;;;;;23.28;50.58;95912.75;1057575;28;1074;-55
2021/09/11 02:21:12;;;;;;;;;;;;;;;23.28;50.56;95904.00;1057555;28;1196;-53
2021/09/11 02:21:43;;;;;;;;;;;;;;;23.28;50.67;95909.31;1048445;28;2120;-58
2021/09/11 02:22:13;;;;;;;;;;;;;;;23.27;50.66;95911.16;1048717;28;2080;-58
2021/09/11 02:22:43;;;;;;;;;;;;;;;23.29;50.52;95910.84;1049177;28;1001;-56
2021/09/11 02:23:14;;;;;;;;;;;;;;;23.28;50.50;95911.94;1049459;28;1119;-57
2021/09/11 02:23:44;;;;;;;;;;;;;;;23.26;50.65;95908.81;1049411;28;1241;-56
2021/09/11 02:24:15;;;;;;;;;;;;;;;23.27;50.49;95913.78;1048276;28;2061;-56
2021/09/11 02:24:45;;;;;;;;;;;;;;;23.27;50.64;95913.00;1048477;28;1991;-57
2021/09/11 02:25:15;;;;;;;;;;;;;;;23.27;50.72;95907.72;1049114;28;1138;-58
2021/09/11 02:25:45;;;;;;;;;;;;;;;23.27;50.43;95916.44;1049255;28;1214;-54
2021/09/11 02:26:16;;;;;;;;;;;;;;;23.27;50.67;95908.50;1044142;28;1598;-57
2021/09/11 02:26:46;;;;;;;;;;;;;;;23.28;50.44;95914.59;1049279;28;1092;-58
2021/09/11 02:27:16;;;;;;;;;;;;;;;23.27;50.64;95908.50;1052979;28;1976;-58
2021/09/11 02:27:47;;;;;;;;;;;;;;;23.27;50.59;95913.78;1053129;28;1088;-57
2021/09/11 02:28:17;;;;;;;;;;;;;;;23.27;50.45;95913.00;1057830;28;1146;-58
2021/09/11 02:28:48;;;;;;;;;;;;;;;23.28;50.37;95911.94;1057472;28;1043;-55
2021/09/11 02:29:18;;;;;;;;;;;;;;;23.27;50.40;95918.28;1048140;28;2061;-55
2021/09/11 02:29:48;;;;;;;;;;;;;;;23.28;50.73;95909.31;1049528;28;1221;-58
2021/09/11 02:30:19;;;;;;;;;;;;;;;23.27;50.78;95913.00;1049531;28;1166;-56
2021/09/11 02:30:49;;;;;;;;;;;;;;;23.29;50.73;95913.50;1049550;28;1256;-57
2021/09/11 02:31:19;;;;;;;;;;;;;;;23.27;50.42;95908.50;1049275;28;1142;-58
2021/09/11 02:31:50;;;;;;;;;;;;;;;23.28;50.65;95914.59;1049647;28;1040;-58
2021/09/11 02:32:20;;;;;;;;;;;;;;;23.28;50.66;95917.22;1049510;28;1165;-56
2021/09/11 02:32:50;;;;;;;;;;;;;;;23.27;50.52;95915.66;1048376;28;1107;-56
2021/09/11 02:33:21;;;;;;;;;;;;;;;23.27;50.60;95918.28;1049434;28;1118;-57
2021/09/11 02:33:51;;;;;;;;;;;;;;;23.27;50.65;95919.09;1049479;28;1197;-57
2021/09/11 02:34:22;;;;;;;;;;;;;;;23.27;50.71;95913.00;1047264;28;2012;-57
2021/09/11 02:34:52;;;;;;;;;;;;;;;23.27;50.60;95910.34;1047141;28;1216;-57
2021/09/11 02:35:22;;;;;;;;;;;;;;;23.27;50.51;95915.66;1049350;28;1351;-58
2021/09/11 02:35:53;;;;;;;;;;;;;;;23.27;50.56;95920.94;1049326;28;1150;-58
2021/09/11 02:36:23;;;;;;;;;;;;;;;23.27;50.63;95918.28;1045303;28;1611;-57
2021/09/11 02:36:53;;;;;;;;;;;;;;;23.27;50.66;95918.28;1047214;28;1084;-57
2021/09/11 02:37:24;;;;;;;;;;;;;;;23.27;50.59;95919.09;1049340;28;1395;-58
2021/09/11 02:37:54;;;;;;;;;;;;;;;23.27;50.64;95918.28;1049245;28;953;-58
2021/09/11 02:38:24;;;;;;;;;;;;;;;23.27;50.38;95918.28;1049698;28;919;-57
2021/09/11 02:38:55;;;;;;;;;;;;;;;23.27;50.64;95921.72;1049457;28;1119;-57
2021/09/11 02:39:25;;;;;;;;;;;;;;;23.27;50.41;95916.44;1048436;28;2013;-57
2021/09/11 02:39:55;;;;;;;;;;;;;;;23.28;50.36;95922.53;1049516;28;1191;-57
2021/09/11 02:40:25;;;;;;;;;;;;;;;23.27;50.39;95919.09;1049694;28;970;-57
2021/09/11 02:40:56;;;;;;;;;;;;;;;23.28;50.60;95919.88;1048832;28;1591;-58
2021/09/11 02:41:26;;;;;;;;;;;;;;;23.28;50.41;95919.88;1045082;28;1712;-55
2021/09/11 02:41:56;;;;;;;;;;;;;;;23.27;50.39;95919.09;1047328;28;1052;-53
2021/09/11 02:42:27;;;;;;;;;;;;;;;23.27;50.37;95921.72;1049433;28;1319;-58
2021/09/11 02:42:57;;;;;;;;;;;;;;;23.27;50.68;95913.78;1047312;28;1842;-56
2021/09/11 02:43:27;;;;;;;;;;;;;;;23.27;50.50;95915.66;1046542;28;2053;-56
2021/09/11 02:43:58;;;;;;;;;;;;;;;23.27;50.37;95920.94;1049149;28;1036;-56
2021/09/11 02:44:28;;;;;;;;;;;;;;;23.28;50.52;95925.16;1049531;28;780;-58